createdAt,value
2023-02-13T00:30:33.018Z,20.10
2023-02-13T00:33:09.319Z,22.45
2023-02-13T00:35:42.177Z,22.45
2023-02-13T00:38:11.858Z,21.48
2023-02-13T00:40:38.541Z,21.63
2023-02-13T00:43:05.172Z,19.38
2023-02-13T00:45:36.070Z,22.52
2023-02-13T00:48:02.782Z,20.45
2023-02-13T01:56:45.180Z,21.40
2023-02-13T01:59:19.156Z,22.52
2023-02-13T02:01:46.489Z,16.67
2023-02-13T02:04:26.620Z,22.85
2023-02-13T02:06:57.884Z,21.77
2023-02-13T02:09:28.481Z,21.73
2023-02-13T02:12:22.669Z,22.27
2023-02-13T02:14:50.707Z,22.70
2023-02-13T02:17:18.275Z,22.17
2023-02-13T02:19:52.982Z,23.10
2023-02-13T02:24:52.376Z,20.55
2023-02-13T02:31:53.258Z,25.20
2023-02-13T02:34:23.372Z,20.50
2023-02-13T02:37:09.989Z,22.05
2023-02-13T02:40:10.302Z,22.33
2023-02-13T02:42:49.308Z,20.95
2023-02-13T02:45:27.575Z,22.10
2023-02-13T02:56:01.857Z,21.05
2023-02-13T02:58:47.234Z,22.20
2023-02-13T03:01:37.234Z,21.92
2023-02-13T03:04:23.807Z,22.45
2023-02-13T04:03:24.860Z,23.33
2023-02-13T04:05:58.201Z,25.60
2023-02-13T04:08:25.079Z,24.85
2023-02-13T04:11:03.004Z,24.63
2023-02-13T04:13:45.843Z,23.65
2023-02-13T04:16:29.908Z,25.35
2023-02-13T04:18:57.941Z,18.52
2023-02-13T04:21:24.637Z,24.48
2023-02-13T08:10:53.462Z,22.75
2023-02-13T08:13:20.973Z,22.58
2023-02-13T08:15:47.626Z,24.42
2023-02-13T08:18:14.283Z,25.48
2023-02-13T08:36:06.569Z,29.45
2023-02-13T08:38:34.188Z,28.08
2023-02-13T08:41:00.913Z,28.55
2023-02-13T08:43:27.585Z,30.75
2023-02-13T10:17:10.657Z,44.15
2023-02-13T10:20:12.616Z,41.80
2023-02-13T10:22:44.327Z,29.83
2023-02-13T10:25:53.252Z,36.22
2023-02-13T10:44:12.067Z,27.75
2023-02-13T10:46:59.886Z,19.67
2023-02-13T11:03:18.120Z,26.45
2023-02-13T11:05:44.806Z,27.85
2023-02-13T11:08:32.307Z,21.55
2023-02-13T11:10:59.098Z,23.38
2023-02-13T11:33:09.699Z,20.02
2023-02-13T11:35:37.457Z,20.90
2023-02-13T11:38:14.385Z,17.63
2023-02-13T11:44:33.264Z,16.40
2023-02-13T11:47:03.163Z,18.23
2023-02-13T11:49:32.864Z,15.35
2023-02-13T12:00:37.344Z,17.67
2023-02-13T12:03:25.859Z,15.93
2023-02-13T12:06:10.866Z,16.05
2023-02-13T12:08:39.864Z,14.23
2023-02-13T12:23:16.732Z,16.80
2023-02-13T12:26:14.452Z,17.13
2023-02-13T12:29:15.982Z,20.25
2023-02-13T12:36:06.489Z,14.90
2023-02-13T12:38:42.698Z,19.05
2023-02-13T12:41:22.743Z,17.00
2023-02-13T12:44:11.249Z,19.50
2023-02-13T12:46:49.015Z,15.07
2023-02-13T13:01:43.292Z,12.50
2023-02-13T13:04:25.383Z,15.32
2023-02-13T13:07:29.705Z,15.73
2023-02-13T13:46:20.129Z,17.23
2023-02-13T14:06:00.772Z,11.75
2023-02-13T14:08:45.290Z,16.23
2023-02-13T14:11:30.374Z,14.35
2023-02-13T14:13:57.238Z,13.30
2023-02-13T14:16:45.158Z,14.80
2023-02-13T16:09:27.226Z,11.57
2023-02-13T16:11:59.833Z,12.15
2023-02-13T16:14:30.050Z,11.93
2023-02-13T16:17:08.214Z,13.30
2023-02-13T16:19:51.451Z,13.50
2023-02-13T16:22:37.199Z,13.80
2023-02-13T16:25:12.587Z,14.02
2023-02-13T16:51:04.196Z,12.80
2023-02-13T16:53:32.932Z,11.75
2023-02-13T16:56:06.114Z,12.40
2023-02-13T16:58:32.768Z,12.70
2023-02-13T17:01:01.797Z,13.55
2023-02-13T17:26:35.474Z,12.30
2023-02-13T17:29:02.106Z,11.95
2023-02-13T17:31:28.940Z,13.90
2023-02-13T17:33:55.590Z,12.73
2023-02-13T18:08:04.185Z,14.23
2023-02-13T18:10:33.884Z,13.15
2023-02-13T18:13:04.060Z,13.80
2023-02-13T18:15:35.680Z,14.27
2023-02-13T18:25:44.778Z,14.32
2023-02-13T18:28:11.437Z,13.63
2023-02-13T18:30:41.143Z,13.93
2023-02-13T18:50:23.927Z,12.80
2023-02-13T18:52:51.667Z,13.55
2023-02-13T18:55:18.512Z,13.95
2023-02-13T19:20:42.309Z,12.60
2023-02-13T19:23:08.989Z,14.88
2023-02-13T19:25:39.936Z,15.05
2023-02-13T20:15:05.033Z,16.58
2023-02-13T20:17:31.752Z,16.40
2023-02-13T20:19:58.927Z,16.83
2023-02-13T20:22:25.638Z,15.43
2023-02-13T20:24:52.270Z,15.73
2023-02-13T20:46:57.782Z,16.48
2023-02-13T20:49:26.615Z,15.93
2023-02-13T20:51:53.553Z,14.10
2023-02-13T20:54:20.222Z,14.82
2023-02-13T20:56:47.519Z,13.82
2023-02-13T20:59:14.198Z,15.15
2023-02-13T21:24:49.871Z,16.08
2023-02-13T21:27:16.559Z,15.93
2023-02-13T21:29:43.174Z,16.40
2023-02-13T21:32:09.930Z,16.70
2023-02-13T21:34:36.700Z,17.48
2023-02-13T21:37:03.498Z,16.65
2023-02-13T21:39:30.223Z,15.73
2023-02-13T21:57:20.376Z,14.02
2023-02-13T21:59:47.058Z,14.27
2023-02-13T22:02:13.843Z,16.08
2023-02-13T22:04:42.131Z,16.30
2023-02-13T22:07:08.803Z,14.45
2023-02-13T22:09:35.578Z,17.75
2023-02-13T22:36:22.212Z,16.20
2023-02-13T22:38:50.043Z,16.52
2023-02-13T22:41:22.072Z,16.23
2023-02-13T22:43:49.533Z,12.90
2023-02-13T22:46:28.203Z,15.48
2023-02-13T22:48:55.632Z,15.45
2023-02-13T22:51:40.667Z,18.63
2023-02-13T22:56:34.349Z,13.30
2023-02-13T23:54:06.663Z,15.93
2023-02-13T23:56:33.390Z,16.23
2023-02-13T23:59:00.062Z,17.52
